Terminal Aerodrome Forecast
Issued by NWS Shreveport, LA

Home | Current Version | Previous Version | Text Only | Print | Product List | Glossary On
Versions: 1 2 3 4 5 6 7 8 9 10 11 12 13 14 15 16
000
FTUS44 KSHV 190520
TAFGGG
TAF
KGGG 190520Z 1906/2006 15006KT P6SM SKC
     FM191400 21005KT P6SM FEW035 SCT250
     FM191800 25006KT P6SM SCT045 BKN250
     FM200000 17004KT P6SM FEW250=

USA.gov is the U.S. government's official web portal to all federal, state and local government web resources and services.